sensor_id;sensor_type;location;lat;lon;timestamp;pressure;altitude;pressure_sealevel;temperature;humidity
77749;BME280;66938;52.084;5.228;2024-02-23T00:01:01;98752.0;;;6.07;100.0
77749;BME280;66938;52.084;5.228;2024-02-23T00:02:37;98753.0;;;6.1;100.0
77749;BME280;66938;52.084;5.228;2024-02-23T00:05:50;98757.0;;;6.22;100.0
77749;BME280;66938;52.084;5.228;2024-02-23T00:07:26;98758.0;;;6.21;100.0
77749;BME280;66938;52.084;5.228;2024-02-23T00:09:02;98761.0;;;6.22;100.0
77749;BME280;66938;52.084;5.228;2024-02-23T00:10:38;98764.0;;;6.19;100.0
77749;BME280;66938;52.084;5.228;2024-02-23T00:13:51;98759.0;;;6.26;100.0
77749;BME280;66938;52.084;5.228;2024-02-23T00:15:27;98767.0;;;6.36;100.0
77749;BME280;66938;52.084;5.228;2024-02-23T00:17:03;98777.0;;;6.34;100.0
77749;BME280;66938;52.084;5.228;2024-02-23T00:20:15;98777.0;;;6.44;100.0
77749;BME280;66938;52.084;5.228;2024-02-23T00:21:51;98781.0;;;6.47;100.0
77749;BME280;66938;52.084;5.228;2024-02-23T00:23:27;98770.0;;;6.65;100.0
77749;BME280;66938;52.084;5.228;2024-02-23T00:26:40;98777.0;;;6.68;100.0
77749;BME280;66938;52.084;5.228;2024-02-23T00:28:16;98782.0;;;6.75;100.0
77749;BME280;66938;52.084;5.228;2024-02-23T00:29:53;98776.0;;;6.79;100.0
77749;BME280;66938;52.084;5.228;2024-02-23T00:33:05;98775.0;;;6.68;100.0
77749;BME280;66938;52.084;5.228;2024-02-23T00:34:41;98783.0;;;6.77;100.0
77749;BME280;66938;52.084;5.228;2024-02-23T00:36:17;98781.0;;;6.76;100.0
77749;BME280;66938;52.084;5.228;2024-02-23T00:37:53;98792.0;;;6.82;100.0
77749;BME280;66938;52.084;5.228;2024-02-23T00:41:05;98797.0;;;6.76;100.0
77749;BME280;66938;52.084;5.228;2024-02-23T00:42:41;98787.0;;;6.66;100.0
77749;BME280;66938;52.084;5.228;2024-02-23T00:44:18;98802.0;;;6.56;100.0
77749;BME280;66938;52.084;5.228;2024-02-23T00:47:33;98805.0;;;6.54;100.0
77749;BME280;66938;52.084;5.228;2024-02-23T00:49:09;98806.0;;;6.52;100.0
77749;BME280;66938;52.084;5.228;2024-02-23T00:50:45;98819.0;;;6.55;100.0
77749;BME280;66938;52.084;5.228;2024-02-23T00:53:57;98819.0;;;6.53;100.0
77749;BME280;66938;52.084;5.228;2024-02-23T00:55:33;98826.0;;;6.43;100.0
77749;BME280;66938;52.084;5.228;2024-02-23T00:57:09;98830.0;;;6.44;100.0
77749;BME280;66938;52.084;5.228;2024-02-23T00:58:45;98836.0;;;6.37;100.0
77749;BME280;66938;52.084;5.228;2024-02-23T01:01:58;98866.0;;;6.29;100.0
77749;BME280;66938;52.084;5.228;2024-02-23T01:03:34;98846.0;;;6.28;100.0
77749;BME280;66938;52.084;5.228;2024-02-23T01:05:10;98865.0;;;6.17;100.0
77749;BME280;66938;52.084;5.228;2024-02-23T01:08:25;98869.0;;;6.05;100.0
77749;BME280;66938;52.084;5.228;2024-02-23T01:10:00;98856.0;;;5.88;100.0
77749;BME280;66938;52.084;5.228;2024-02-23T01:11:36;98853.0;;;5.76;100.0
77749;BME280;66938;52.084;5.228;2024-02-23T01:14:49;98866.0;;;5.58;100.0
77749;BME280;66938;52.084;5.228;2024-02-23T01:16:25;98861.0;;;5.53;100.0
77749;BME280;66938;52.084;5.228;2024-02-23T01:18:01;98855.0;;;5.45;100.0
77749;BME280;66938;52.084;5.228;2024-02-23T01:21:17;98870.0;;;5.58;100.0
77749;BME280;66938;52.084;5.228;2024-02-23T01:22:53;98867.0;;;5.59;100.0
77749;BME280;66938;52.084;5.228;2024-02-23T01:24:29;98871.0;;;5.63;100.0
77749;BME280;66938;52.084;5.228;2024-02-23T01:26:05;98883.0;;;5.64;100.0
77749;BME280;66938;52.084;5.228;2024-02-23T01:29:18;98886.0;;;5.63;100.0
77749;BME280;66938;52.084;5.228;2024-02-23T01:30:54;98885.0;;;5.82;100.0
77749;BME280;66938;52.084;5.228;2024-02-23T01:32:30;98881.0;;;5.8;100.0
77749;BME280;66938;52.084;5.228;2024-02-23T01:35:42;98885.0;;;5.69;100.0
77749;BME280;66938;52.084;5.228;2024-02-23T01:37:18;98893.0;;;5.7;100.0
77749;BME280;66938;52.084;5.228;2024-02-23T01:38:54;98895.0;;;5.84;100.0
77749;BME280;66938;52.084;5.228;2024-02-23T01:42:08;98898.0;;;5.9;100.0
77749;BME280;66938;52.084;5.228;2024-02-23T01:43:44;98903.0;;;5.82;100.0
77749;BME280;66938;52.084;5.228;2024-02-23T01:45:20;98901.0;;;5.91;100.0
77749;BME280;66938;52.084;5.228;2024-02-23T01:46:56;98892.0;;;5.95;100.0
77749;BME280;66938;52.084;5.228;2024-02-23T01:50:12;98897.0;;;6.04;100.0
77749;BME280;66938;52.084;5.228;2024-02-23T01:51:48;98893.0;;;6.19;100.0
77749;BME280;66938;52.084;5.228;2024-02-23T01:53:25;98890.0;;;6.12;100.0
77749;BME280;66938;52.084;5.228;2024-02-23T01:56:38;98893.0;;;6.06;100.0
77749;BME280;66938;52.084;5.228;2024-02-23T01:58:14;98897.0;;;6.05;100.0
77749;BME280;66938;52.084;5.228;2024-02-23T01:59:51;98900.0;;;6.14;100.0
77749;BME280;66938;52.084;5.228;2024-02-23T02:03:04;98905.0;;;6.24;100.0
77749;BME280;66938;52.084;5.228;2024-02-23T02:04:40;98905.0;;;6.23;100.0
77749;BME280;66938;52.084;5.228;2024-02-23T02:06:16;98907.0;;;6.25;100.0
77749;BME280;66938;52.084;5.228;2024-02-23T02:07:53;98910.0;;;6.28;100.0
77749;BME280;66938;52.084;5.228;2024-02-23T02:11:08;98905.0;;;6.35;100.0
77749;BME280;66938;52.084;5.228;2024-02-23T02:12:44;98912.0;;;6.34;100.0
77749;BME280;66938;52.084;5.228;2024-02-23T02:14:21;98917.0;;;6.15;100.0
77749;BME280;66938;52.084;5.228;2024-02-23T02:17:37;98921.0;;;6.17;100.0
77749;BME280;66938;52.084;5.228;2024-02-23T02:19:14;98921.0;;;6.15;100.0
77749;BME280;66938;52.084;5.228;2024-02-23T02:20:51;98921.0;;;6.13;100.0
77749;BME280;66938;52.084;5.228;2024-02-23T02:22:27;98917.0;;;6.16;100.0
77749;BME280;66938;52.084;5.228;2024-02-23T02:25:40;98923.0;;;6.28;100.0
77749;BME280;66938;52.084;5.228;2024-02-23T02:27:16;98921.0;;;6.24;100.0
77749;BME280;66938;52.084;5.228;2024-02-23T02:28:52;98931.0;;;6.37;100.0
77749;BME280;66938;52.084;5.228;2024-02-23T02:32:05;98923.0;;;6.26;100.0
77749;BME280;66938;52.084;5.228;2024-02-23T02:33:42;98925.0;;;6.27;100.0
77749;BME280;66938;52.084;5.228;2024-02-23T02:35:18;98924.0;;;6.19;100.0
77749;BME280;66938;52.084;5.228;2024-02-23T02:38:30;98925.0;;;6.17;100.0
77749;BME280;66938;52.084;5.228;2024-02-23T02:40:07;98924.0;;;6.21;100.0
77749;BME280;66938;52.084;5.228;2024-02-23T02:41:43;98925.0;;;6.1;100.0
77749;BME280;66938;52.084;5.228;2024-02-23T02:44:55;98925.0;;;6.22;100.0
77749;BME280;66938;52.084;5.228;2024-02-23T02:46:32;98928.0;;;6.15;100.0
77749;BME280;66938;52.084;5.228;2024-02-23T02:48:08;98930.0;;;6.23;100.0
77749;BME280;66938;52.084;5.228;2024-02-23T02:49:44;98924.0;;;6.13;100.0
77749;BME280;66938;52.084;5.228;2024-02-23T02:52:56;98930.0;;;6.19;100.0
77749;BME280;66938;52.084;5.228;2024-02-23T02:54:32;98938.0;;;6.24;100.0
77749;BME280;66938;52.084;5.228;2024-02-23T02:56:08;98938.0;;;6.1;100.0
77749;BME280;66938;52.084;5.228;2024-02-23T02:59:24;98937.0;;;6.2;100.0
77749;BME280;66938;52.084;5.228;2024-02-23T03:00:59;98951.0;;;6.08;100.0
77749;BME280;66938;52.084;5.228;2024-02-23T03:02:36;98949.0;;;6.1;100.0
77749;BME280;66938;52.084;5.228;2024-02-23T03:05:48;98953.0;;;5.98;100.0
77749;BME280;66938;52.084;5.228;2024-02-23T03:07:24;98948.0;;;5.95;100.0
77749;BME280;66938;52.084;5.228;2024-02-23T03:09:00;98949.0;;;5.94;100.0
77749;BME280;66938;52.084;5.228;2024-02-23T03:10:36;98963.0;;;5.95;100.0
77749;BME280;66938;52.084;5.228;2024-02-23T03:13:48;98957.0;;;5.91;100.0
77749;BME280;66938;52.084;5.228;2024-02-23T03:15:24;98962.0;;;5.94;100.0
77749;BME280;66938;52.084;5.228;2024-02-23T03:17:01;98959.0;;;5.83;100.0
77749;BME280;66938;52.084;5.228;2024-02-23T03:20:15;98965.0;;;5.81;100.0
77749;BME280;66938;52.084;5.228;2024-02-23T03:21:52;98964.0;;;5.77;100.0
77749;BME280;66938;52.084;5.228;2024-02-23T03:23:28;98971.0;;;5.77;100.0
77749;BME280;66938;52.084;5.228;2024-02-23T03:26:41;98965.0;;;5.76;100.0
77749;BME280;66938;52.084;5.228;2024-02-23T03:28:17;98980.0;;;5.83;100.0
77749;BME280;66938;52.084;5.228;2024-02-23T03:29:53;98971.0;;;5.68;100.0
77749;BME280;66938;52.084;5.228;2024-02-23T03:31:33;98974.0;;;5.79;100.0
77749;BME280;66938;52.084;5.228;2024-02-23T03:34:45;98974.0;;;5.71;100.0
77749;BME280;66938;52.084;5.228;2024-02-23T03:36:21;98970.0;;;5.64;100.0
77749;BME280;66938;52.084;5.228;2024-02-23T03:37:57;98974.0;;;5.59;100.0
77749;BME280;66938;52.084;5.228;2024-02-23T03:41:09;98971.0;;;5.64;100.0
77749;BME280;66938;52.084;5.228;2024-02-23T03:42:48;98987.0;;;5.69;100.0
77749;BME280;66938;52.084;5.228;2024-02-23T03:44:24;98991.0;;;5.62;100.0
77749;BME280;66938;52.084;5.228;2024-02-23T03:47:38;98989.0;;;5.57;100.0
77749;BME280;66938;52.084;5.228;2024-02-23T03:49:14;98994.0;;;5.64;100.0
77749;BME280;66938;52.084;5.228;2024-02-23T03:50:50;98993.0;;;5.73;100.0
77749;BME280;66938;52.084;5.228;2024-02-23T03:52:26;98988.0;;;5.78;100.0
77749;BME280;66938;52.084;5.228;2024-02-23T03:55:41;98988.0;;;5.6;100.0
77749;BME280;66938;52.084;5.228;2024-02-23T03:57:17;98998.0;;;5.69;100.0
77749;BME280;66938;52.084;5.228;2024-02-23T03:58:52;98997.0;;;5.68;100.0
77749;BME280;66938;52.084;5.228;2024-02-23T04:02:04;98995.0;;;5.75;100.0
77749;BME280;66938;52.084;5.228;2024-02-23T04:03:40;99000.0;;;5.75;100.0
77749;BME280;66938;52.084;5.228;2024-02-23T04:05:17;99000.0;;;5.66;100.0
77749;BME280;66938;52.084;5.228;2024-02-23T04:08:29;98996.0;;;5.64;100.0
77749;BME280;66938;52.084;5.228;2024-02-23T04:10:06;98992.0;;;5.71;100.0
77749;BME280;66938;52.084;5.228;2024-02-23T04:11:42;99001.0;;;5.78;100.0
77749;BME280;66938;52.084;5.228;2024-02-23T04:13:18;99005.0;;;5.52;100.0
77749;BME280;66938;52.084;5.228;2024-02-23T04:16:31;99003.0;;;5.5;100.0
77749;BME280;66938;52.084;5.228;2024-02-23T04:18:07;99001.0;;;5.68;100.0
77749;BME280;66938;52.084;5.228;2024-02-23T04:19:44;99002.0;;;5.61;100.0
77749;BME280;66938;52.084;5.228;2024-02-23T04:22:56;99005.0;;;5.6;100.0
77749;BME280;66938;52.084;5.228;2024-02-23T04:24:32;99006.0;;;5.5;100.0
77749;BME280;66938;52.084;5.228;2024-02-23T04:26:08;99006.0;;;5.34;100.0
77749;BME280;66938;52.084;5.228;2024-02-23T04:29:20;99008.0;;;5.58;100.0
77749;BME280;66938;52.084;5.228;2024-02-23T04:30:55;99017.0;;;5.67;100.0
77749;BME280;66938;52.084;5.228;2024-02-23T04:32:32;99014.0;;;5.62;100.0
77749;BME280;66938;52.084;5.228;2024-02-23T04:35:44;99018.0;;;5.55;100.0
77749;BME280;66938;52.084;5.228;2024-02-23T04:37:20;99017.0;;;5.65;100.0
77749;BME280;66938;52.084;5.228;2024-02-23T04:38:59;99020.0;;;5.54;100.0
77749;BME280;66938;52.084;5.228;2024-02-23T04:40:35;99020.0;;;5.69;100.0
77749;BME280;66938;52.084;5.228;2024-02-23T04:43:47;99020.0;;;5.59;100.0
77749;BME280;66938;52.084;5.228;2024-02-23T04:45:23;99026.0;;;5.43;100.0
77749;BME280;66938;52.084;5.228;2024-02-23T04:47:00;99022.0;;;5.53;100.0
77749;BME280;66938;52.084;5.228;2024-02-23T04:50:12;99024.0;;;5.56;100.0
77749;BME280;66938;52.084;5.228;2024-02-23T04:51:48;99026.0;;;5.63;100.0
77749;BME280;66938;52.084;5.228;2024-02-23T04:53:24;99028.0;;;5.69;100.0
77749;BME280;66938;52.084;5.228;2024-02-23T04:56:36;99024.0;;;5.79;100.0
77749;BME280;66938;52.084;5.228;2024-02-23T04:58:12;99022.0;;;5.63;100.0
77749;BME280;66938;52.084;5.228;2024-02-23T04:59:48;99019.0;;;5.64;100.0
77749;BME280;66938;52.084;5.228;2024-02-23T05:01:25;99020.0;;;5.72;100.0
77749;BME280;66938;52.084;5.228;2024-02-23T05:04:40;99030.0;;;5.82;100.0
77749;BME280;66938;52.084;5.228;2024-02-23T05:06:16;99026.0;;;5.86;100.0
77749;BME280;66938;52.084;5.228;2024-02-23T05:07:52;99025.0;;;5.9;100.0
77749;BME280;66938;52.084;5.228;2024-02-23T05:11:04;99014.0;;;5.93;100.0
77749;BME280;66938;52.084;5.228;2024-02-23T05:12:40;99015.0;;;5.93;100.0
77749;BME280;66938;52.084;5.228;2024-02-23T05:14:16;99017.0;;;6.09;100.0
77749;BME280;66938;52.084;5.228;2024-02-23T05:17:31;99020.0;;;6.08;100.0
77749;BME280;66938;52.084;5.228;2024-02-23T05:19:07;99020.0;;;6.01;100.0
77749;BME280;66938;52.084;5.228;2024-02-23T05:20:43;99019.0;;;6.12;100.0
77749;BME280;66938;52.084;5.228;2024-02-23T05:22:19;99017.0;;;6.16;100.0
77749;BME280;66938;52.084;5.228;2024-02-23T05:25:31;99030.0;;;6.13;100.0
77749;BME280;66938;52.084;5.228;2024-02-23T05:27:08;99031.0;;;6.11;100.0
77749;BME280;66938;52.084;5.228;2024-02-23T05:28:43;99026.0;;;6.2;100.0
77749;BME280;66938;52.084;5.228;2024-02-23T05:31:56;99026.0;;;6.27;100.0
77749;BME280;66938;52.084;5.228;2024-02-23T05:33:32;99022.0;;;6.3;100.0
77749;BME280;66938;52.084;5.228;2024-02-23T05:35:08;99034.0;;;6.42;100.0
77749;BME280;66938;52.084;5.228;2024-02-23T05:38:22;99032.0;;;6.38;100.0
77749;BME280;66938;52.084;5.228;2024-02-23T05:40:05;99030.0;;;6.25;100.0
77749;BME280;66938;52.084;5.228;2024-02-23T05:41:41;99026.0;;;6.22;100.0
77749;BME280;66938;52.084;5.228;2024-02-23T05:43:16;99027.0;;;6.32;100.0
77749;BME280;66938;52.084;5.228;2024-02-23T05:46:28;99028.0;;;6.34;100.0
77749;BME280;66938;52.084;5.228;2024-02-23T05:48:04;99026.0;;;6.38;100.0
77749;BME280;66938;52.084;5.228;2024-02-23T05:49:40;99026.0;;;6.46;100.0
77749;BME280;66938;52.084;5.228;2024-02-23T05:52:52;99022.0;;;6.47;100.0
77749;BME280;66938;52.084;5.228;2024-02-23T05:54:28;99022.0;;;6.54;100.0
77749;BME280;66938;52.084;5.228;2024-02-23T05:56:05;99020.0;;;6.53;100.0
77749;BME280;66938;52.084;5.228;2024-02-23T05:59:17;99017.0;;;6.66;100.0
77749;BME280;66938;52.084;5.228;2024-02-23T06:00:53;99022.0;;;6.58;100.0
77749;BME280;66938;52.084;5.228;2024-02-23T06:02:29;99023.0;;;6.52;100.0
77749;BME280;66938;52.084;5.228;2024-02-23T06:05:41;99018.0;;;6.63;100.0
77749;BME280;66938;52.084;5.228;2024-02-23T06:07:17;99016.0;;;6.62;100.0
77749;BME280;66938;52.084;5.228;2024-02-23T06:08:53;99018.0;;;6.51;100.0
77749;BME280;66938;52.084;5.228;2024-02-23T06:10:29;99022.0;;;6.48;100.0
77749;BME280;66938;52.084;5.228;2024-02-23T06:13:48;99027.0;;;6.41;100.0
77749;BME280;66938;52.084;5.228;2024-02-23T06:15:24;99032.0;;;6.35;100.0
77749;BME280;66938;52.084;5.228;2024-02-23T06:17:00;99028.0;;;6.34;100.0
77749;BME280;66938;52.084;5.228;2024-02-23T06:20:12;99030.0;;;6.45;100.0
77749;BME280;66938;52.084;5.228;2024-02-23T06:21:48;99033.0;;;6.37;100.0
77749;BME280;66938;52.084;5.228;2024-02-23T06:23:24;99038.0;;;6.24;100.0
77749;BME280;66938;52.084;5.228;2024-02-23T06:26:38;99039.0;;;6.33;100.0
77749;BME280;66938;52.084;5.228;2024-02-23T06:28:14;99038.0;;;6.34;100.0
77749;BME280;66938;52.084;5.228;2024-02-23T06:29:52;99036.0;;;6.37;100.0
77749;BME280;66938;52.084;5.228;2024-02-23T06:31:28;99040.0;;;6.31;100.0
77749;BME280;66938;52.084;5.228;2024-02-23T06:34:41;99048.0;;;6.36;100.0
77749;BME280;66938;52.084;5.228;2024-02-23T06:36:17;99049.0;;;6.49;100.0
77749;BME280;66938;52.084;5.228;2024-02-23T06:37:54;99046.0;;;6.45;100.0
77749;BME280;66938;52.084;5.228;2024-02-23T06:41:06;99044.0;;;6.43;100.0
77749;BME280;66938;52.084;5.228;2024-02-23T06:42:42;99032.0;;;6.41;100.0
77749;BME280;66938;52.084;5.228;2024-02-23T06:44:18;99034.0;;;6.38;100.0
77749;BME280;66938;52.084;5.228;2024-02-23T06:47:33;99044.0;;;6.4;100.0
77749;BME280;66938;52.084;5.228;2024-02-23T06:49:10;99038.0;;;6.38;100.0
77749;BME280;66938;52.084;5.228;2024-02-23T06:50:46;99043.0;;;6.43;100.0
77749;BME280;66938;52.084;5.228;2024-02-23T06:52:22;99048.0;;;6.39;100.0
77749;BME280;66938;52.084;5.228;2024-02-23T06:55:34;99035.0;;;6.43;100.0
77749;BME280;66938;52.084;5.228;2024-02-23T06:57:10;99038.0;;;6.49;100.0
77749;BME280;66938;52.084;5.228;2024-02-23T06:58:46;99037.0;;;6.46;100.0
77749;BME280;66938;52.084;5.228;2024-02-23T07:01:58;99031.0;;;6.49;100.0
77749;BME280;66938;52.084;5.228;2024-02-23T07:03:34;99033.0;;;6.59;100.0
77749;BME280;66938;52.084;5.228;2024-02-23T07:05:11;99037.0;;;6.53;100.0
77749;BME280;66938;52.084;5.228;2024-02-23T07:08:23;99036.0;;;6.59;100.0
77749;BME280;66938;52.084;5.228;2024-02-23T07:09:59;99037.0;;;6.43;100.0
77749;BME280;66938;52.084;5.228;2024-02-23T07:11:35;99030.0;;;6.45;100.0
77749;BME280;66938;52.084;5.228;2024-02-23T07:13:11;99031.0;;;6.48;100.0
77749;BME280;66938;52.084;5.228;2024-02-23T07:16:24;99041.0;;;6.53;100.0
77749;BME280;66938;52.084;5.228;2024-02-23T07:18:01;99037.0;;;6.62;100.0
77749;BME280;66938;52.084;5.228;2024-02-23T07:19:37;99042.0;;;6.66;100.0
77749;BME280;66938;52.084;5.228;2024-02-23T07:22:49;99045.0;;;6.62;100.0
77749;BME280;66938;52.084;5.228;2024-02-23T07:24:25;99050.0;;;6.53;100.0
77749;BME280;66938;52.084;5.228;2024-02-23T07:26:01;99049.0;;;6.62;100.0
77749;BME280;66938;52.084;5.228;2024-02-23T07:29:13;99045.0;;;6.72;100.0
77749;BME280;66938;52.084;5.228;2024-02-23T07:30:49;99040.0;;;6.72;100.0
77749;BME280;66938;52.084;5.228;2024-02-23T07:32:25;99043.0;;;6.63;100.0
77749;BME280;66938;52.084;5.228;2024-02-23T07:35:38;99032.0;;;6.7;100.0
77749;BME280;66938;52.084;5.228;2024-02-23T07:37:14;99030.0;;;6.77;100.0
77749;BME280;66938;52.084;5.228;2024-02-23T07:38:50;99031.0;;;6.9;100.0
77749;BME280;66938;52.084;5.228;2024-02-23T07:40:26;99028.0;;;6.91;100.0
77749;BME280;66938;52.084;5.228;2024-02-23T07:43:38;99019.0;;;6.98;100.0
77749;BME280;66938;52.084;5.228;2024-02-23T07:45:14;99013.0;;;7.09;100.0
77749;BME280;66938;52.084;5.228;2024-02-23T07:48:26;99022.0;;;7.09;100.0
77749;BME280;66938;52.084;5.228;2024-02-23T07:50:03;99020.0;;;7.07;100.0
77749;BME280;66938;52.084;5.228;2024-02-23T07:51:38;99025.0;;;7.22;100.0
77749;BME280;66938;52.084;5.228;2024-02-23T07:54:51;99012.0;;;6.94;100.0
77749;BME280;66938;52.084;5.228;2024-02-23T07:56:28;99013.0;;;6.96;100.0
77749;BME280;66938;52.084;5.228;2024-02-23T07:58:04;99007.0;;;7.01;100.0
77749;BME280;66938;52.084;5.228;2024-02-23T08:01:17;99015.0;;;7.01;100.0
77749;BME280;66938;52.084;5.228;2024-02-23T08:02:53;99013.0;;;7.03;100.0
77749;BME280;66938;52.084;5.228;2024-02-23T08:04:28;99013.0;;;7.06;100.0
77749;BME280;66938;52.084;5.228;2024-02-23T08:06:07;99005.0;;;7.02;100.0
77749;BME280;66938;52.084;5.228;2024-02-23T08:09:20;99005.0;;;7.02;100.0
77749;BME280;66938;52.084;5.228;2024-02-23T08:10:56;99003.0;;;6.88;100.0
77749;BME280;66938;52.084;5.228;2024-02-23T08:12:32;99000.0;;;6.95;100.0
77749;BME280;66938;52.084;5.228;2024-02-23T08:15:45;98994.0;;;6.94;100.0
77749;BME280;66938;52.084;5.228;2024-02-23T08:17:24;98998.0;;;6.87;100.0
77749;BME280;66938;52.084;5.228;2024-02-23T08:19:00;98995.0;;;6.93;100.0
77749;BME280;66938;52.084;5.228;2024-02-23T08:22:12;99001.0;;;7.01;100.0
77749;BME280;66938;52.084;5.228;2024-02-23T08:23:49;98998.0;;;6.94;100.0
77749;BME280;66938;52.084;5.228;2024-02-23T08:25:25;98992.0;;;6.94;100.0
77749;BME280;66938;52.084;5.228;2024-02-23T08:27:01;98998.0;;;6.89;100.0
77749;BME280;66938;52.084;5.228;2024-02-23T08:30:14;98994.0;;;6.94;100.0
77749;BME280;66938;52.084;5.228;2024-02-23T08:31:50;98984.0;;;6.89;100.0
77749;BME280;66938;52.084;5.228;2024-02-23T08:33:27;98980.0;;;7.0;100.0
77749;BME280;66938;52.084;5.228;2024-02-23T08:36:40;98978.0;;;6.92;100.0
77749;BME280;66938;52.084;5.228;2024-02-23T08:38:17;98975.0;;;7.03;100.0
77749;BME280;66938;52.084;5.228;2024-02-23T08:39:54;98965.0;;;7.02;100.0
77749;BME280;66938;52.084;5.228;2024-02-23T08:43:06;98975.0;;;6.98;100.0
77749;BME280;66938;52.084;5.228;2024-02-23T08:44:42;98981.0;;;6.95;100.0
77749;BME280;66938;52.084;5.228;2024-02-23T08:46:18;98970.0;;;6.79;100.0
77749;BME280;66938;52.084;5.228;2024-02-23T08:47:54;98992.0;;;6.82;100.0
77749;BME280;66938;52.084;5.228;2024-02-23T08:51:07;98972.0;;;6.75;100.0
77749;BME280;66938;52.084;5.228;2024-02-23T08:52:44;98976.0;;;6.6;100.0
77749;BME280;66938;52.084;5.228;2024-02-23T08:54:20;98987.0;;;6.7;100.0
77749;BME280;66938;52.084;5.228;2024-02-23T08:57:33;98988.0;;;6.72;100.0
77749;BME280;66938;52.084;5.228;2024-02-23T08:59:09;98993.0;;;6.75;100.0
77749;BME280;66938;52.084;5.228;2024-02-23T09:00:45;98996.0;;;6.85;100.0
77749;BME280;66938;52.084;5.228;2024-02-23T09:03:57;98993.0;;;6.82;100.0
77749;BME280;66938;52.084;5.228;2024-02-23T09:05:34;98991.0;;;6.82;100.0
77749;BME280;66938;52.084;5.228;2024-02-23T09:07:10;98992.0;;;6.84;100.0
77749;BME280;66938;52.084;5.228;2024-02-23T09:08:47;98992.0;;;6.94;100.0
77749;BME280;66938;52.084;5.228;2024-02-23T09:11:59;98998.0;;;6.96;100.0
77749;BME280;66938;52.084;5.228;2024-02-23T09:13:35;99000.0;;;7.02;100.0
77749;BME280;66938;52.084;5.228;2024-02-23T09:15:11;99003.0;;;7.03;100.0
77749;BME280;66938;52.084;5.228;2024-02-23T09:18:25;99003.0;;;6.94;100.0
77749;BME280;66938;52.084;5.228;2024-02-23T09:20:01;99005.0;;;6.91;100.0
77749;BME280;66938;52.084;5.228;2024-02-23T09:21:37;99005.0;;;6.82;100.0
77749;BME280;66938;52.084;5.228;2024-02-23T09:24:51;99015.0;;;6.85;100.0
77749;BME280;66938;52.084;5.228;2024-02-23T09:26:27;99008.0;;;6.91;100.0
77749;BME280;66938;52.084;5.228;2024-02-23T09:28:03;99002.0;;;6.96;100.0
77749;BME280;66938;52.084;5.228;2024-02-23T09:29:40;99005.0;;;6.91;100.0
77749;BME280;66938;52.084;5.228;2024-02-23T09:32:53;98998.0;;;6.78;100.0
77749;BME280;66938;52.084;5.228;2024-02-23T09:34:29;99005.0;;;6.88;100.0
77749;BME280;66938;52.084;5.228;2024-02-23T09:36:06;99009.0;;;6.85;100.0
77749;BME280;66938;52.084;5.228;2024-02-23T09:39:19;99013.0;;;6.91;100.0
77749;BME280;66938;52.084;5.228;2024-02-23T09:40:56;99019.0;;;6.92;100.0
77749;BME280;66938;52.084;5.228;2024-02-23T09:42:33;99022.0;;;6.94;100.0
77749;BME280;66938;52.084;5.228;2024-02-23T09:45:46;99030.0;;;6.89;100.0
77749;BME280;66938;52.084;5.228;2024-02-23T09:47:24;99019.0;;;6.97;100.0
77749;BME280;66938;52.084;5.228;2024-02-23T09:49:02;99030.0;;;6.97;100.0
77749;BME280;66938;52.084;5.228;2024-02-23T09:50:40;99021.0;;;6.98;100.0
77749;BME280;66938;52.084;5.228;2024-02-23T09:53:57;99022.0;;;6.95;100.0
77749;BME280;66938;52.084;5.228;2024-02-23T09:55:34;99015.0;;;6.98;100.0
77749;BME280;66938;52.084;5.228;2024-02-23T09:57:10;99021.0;;;7.13;100.0
77749;BME280;66938;52.084;5.228;2024-02-23T10:00:27;99023.0;;;7.14;100.0
77749;BME280;66938;52.084;5.228;2024-02-23T10:02:08;99022.0;;;7.17;100.0
77749;BME280;66938;52.084;5.228;2024-02-23T10:03:45;99028.0;;;7.17;100.0
77749;BME280;66938;52.084;5.228;2024-02-23T10:05:29;99016.0;;;7.22;100.0
77749;BME280;66938;52.084;5.228;2024-02-23T10:08:42;99023.0;;;7.29;100.0
77749;BME280;66938;52.084;5.228;2024-02-23T10:10:24;99030.0;;;7.41;100.0
77749;BME280;66938;52.084;5.228;2024-02-23T10:12:01;99021.0;;;7.52;100.0
77749;BME280;66938;52.084;5.228;2024-02-23T10:13:41;99035.0;;;7.55;100.0
77749;BME280;66938;52.084;5.228;2024-02-23T10:16:53;99022.0;;;7.59;100.0
77749;BME280;66938;52.084;5.228;2024-02-23T10:18:28;99032.0;;;7.62;100.0
77749;BME280;66938;52.084;5.228;2024-02-23T10:20:06;99019.0;;;7.54;100.0
77749;BME280;66938;52.084;5.228;2024-02-23T10:23:19;99027.0;;;7.56;100.0
77749;BME280;66938;52.084;5.228;2024-02-23T10:24:55;99038.0;;;7.6;100.0
77749;BME280;66938;52.084;5.228;2024-02-23T10:26:31;99032.0;;;7.63;100.0
77749;BME280;66938;52.084;5.228;2024-02-23T10:29:44;99037.0;;;7.75;100.0
77749;BME280;66938;52.084;5.228;2024-02-23T10:31:20;99036.0;;;7.77;100.0
77749;BME280;66938;52.084;5.228;2024-02-23T10:32:58;99044.0;;;7.54;100.0
77749;BME280;66938;52.084;5.228;2024-02-23T10:34:36;99042.0;;;7.62;100.0
77749;BME280;66938;52.084;5.228;2024-02-23T10:37:54;99051.0;;;7.45;100.0
77749;BME280;66938;52.084;5.228;2024-02-23T10:39:30;99057.0;;;7.53;100.0
77749;BME280;66938;52.084;5.228;2024-02-23T10:41:07;99055.0;;;7.5;100.0
77749;BME280;66938;52.084;5.228;2024-02-23T10:44:26;99058.0;;;7.57;100.0
77749;BME280;66938;52.084;5.228;2024-02-23T10:46:04;99067.0;;;7.54;100.0
77749;BME280;66938;52.084;5.228;2024-02-23T10:47:41;99058.0;;;7.58;100.0
77749;BME280;66938;52.084;5.228;2024-02-23T10:49:18;99058.0;;;7.57;100.0
77749;BME280;66938;52.084;5.228;2024-02-23T10:52:33;99064.0;;;7.58;100.0
77749;BME280;66938;52.084;5.228;2024-02-23T10:54:11;99059.0;;;7.63;100.0
77749;BME280;66938;52.084;5.228;2024-02-23T10:55:52;99057.0;;;7.65;100.0
77749;BME280;66938;52.084;5.228;2024-02-23T10:57:34;99063.0;;;7.57;100.0
77749;BME280;66938;52.084;5.228;2024-02-23T11:00:47;99062.0;;;7.68;100.0
77749;BME280;66938;52.084;5.228;2024-02-23T11:02:23;99070.0;;;7.73;100.0
77749;BME280;66938;52.084;5.228;2024-02-23T11:04:04;99066.0;;;7.8;100.0
77749;BME280;66938;52.084;5.228;2024-02-23T11:07:19;99081.0;;;7.74;100.0
77749;BME280;66938;52.084;5.228;2024-02-23T11:09:05;99078.0;;;7.7;100.0
77749;BME280;66938;52.084;5.228;2024-02-23T11:10:42;99086.0;;;7.86;100.0
77749;BME280;66938;52.084;5.228;2024-02-23T11:12:23;99074.0;;;7.87;100.0
77749;BME280;66938;52.084;5.228;2024-02-23T11:15:42;99083.0;;;7.83;100.0
77749;BME280;66938;52.084;5.228;2024-02-23T11:17:19;99080.0;;;8.1;100.0
77749;BME280;66938;52.084;5.228;2024-02-23T11:19:03;99090.0;;;8.1;100.0
77749;BME280;66938;52.084;5.228;2024-02-23T11:20:41;99088.0;;;8.14;100.0
77749;BME280;66938;52.084;5.228;2024-02-23T11:24:03;99086.0;;;8.23;100.0